Time;durP1;ratioP1;P1;durP2;ratioP2;P2;SDS_P1;SDS_P2;PMS_P1;PMS_P2;Temp;Humidity;BMP_temperature;BMP_pressure;BME280_temperature;BME280_humidity;BME280_pressure;Samples;Min_cycle;Max_cycle;Signal;HPM_P1;HPM_P2
2023/06/16 00:01:41;;;;;;;;;6.00;6.00;;;;;21.24;58.90;101587.06;5062589;28;45554;-80
2023/06/16 00:04:08;;;;;;;;;10.33;10.33;;;;;21.20;58.03;101589.16;5062709;28;45421;-79
2023/06/16 00:06:33;;;;;;;;;12.67;11.00;;;;;21.12;59.23;101583.53;5062890;28;45411;-80
2023/06/16 00:09:00;;;;;;;;;13.33;13.33;;;;;21.15;58.47;101591.34;5044350;28;45337;-79
2023/06/16 00:11:29;;;;;;;;;9.67;9.67;;;;;21.11;59.53;101589.88;5062884;28;45451;-79
2023/06/16 00:13:56;;;;;;;;;11.67;11.67;;;;;21.19;60.08;101595.53;5061574;28;45321;-81
2023/06/16 00:16:23;;;;;;;;;15.67;14.00;;;;;21.21;61.52;101593.56;5044689;28;45467;-79
2023/06/16 00:18:53;;;;;;;;;13.67;11.00;;;;;21.21;60.62;101601.63;5042897;28;45395;-80
2023/06/16 00:21:25;;;;;;;;;13.00;13.00;;;;;21.15;60.36;101599.44;5061681;28;45325;-79
2023/06/16 00:23:50;;;;;;;;;16.00;13.00;;;;;21.00;61.08;101576.41;5057735;28;45444;-80
2023/06/16 00:26:15;;;;;;;;;16.00;13.00;;;;;21.09;61.83;101594.53;5043524;28;45489;-80
2023/06/16 00:28:41;;;;;;;;;20.67;14.67;;;;;21.06;61.46;101593.88;5043493;28;45337;-80
2023/06/16 00:31:06;;;;;;;;;21.33;20.00;;;;;21.10;61.90;101590.03;5062447;28;46126;-80
2023/06/16 00:33:31;;;;;;;;;19.67;17.67;;;;;21.06;62.97;101580.44;5043702;28;45356;-80
2023/06/16 00:35:57;;;;;;;;;20.00;18.67;;;;;21.08;62.04;101587.41;5063288;28;45446;-80
2023/06/16 00:38:22;;;;;;;;;20.00;20.00;;;;;21.06;63.73;101588.50;5062285;28;45528;-80
2023/06/16 00:40:47;;;;;;;;;19.33;17.67;;;;;20.94;64.06;101574.16;5042549;28;46702;-81
2023/06/16 00:43:13;;;;;;;;;19.00;17.00;;;;;20.96;63.87;101582.13;5041998;28;45357;-80
2023/06/16 00:45:38;;;;;;;;;16.67;16.67;;;;;20.93;64.26;101593.13;5060865;28;45320;-81
2023/06/16 00:48:04;;;;;;;;;23.67;21.67;;;;;20.85;64.39;101580.28;5060623;28;51959;-81
2023/06/16 00:50:31;;;;;;;;;18.67;18.67;;;;;20.90;65.01;101598.75;5044432;28;46412;-80
2023/06/16 00:52:56;;;;;;;;;18.33;17.33;;;;;20.79;65.47;101588.81;5042231;28;45429;-81
2023/06/16 00:55:22;;;;;;;;;22.33;19.67;;;;;20.84;65.68;101604.59;5061324;28;45286;-81
2023/06/16 00:57:49;;;;;;;;;18.33;16.67;;;;;20.83;63.38;101609.13;5061105;28;45525;-80
2023/06/16 01:00:15;;;;;;;;;19.67;19.67;;;;;20.84;66.11;101597.41;5060681;28;45225;-80
2023/06/16 01:02:44;;;;;;;;;18.33;16.00;;;;;20.82;66.30;101602.03;5043067;28;46155;-80
2023/06/16 01:05:11;;;;;;;;;17.67;16.33;;;;;20.73;66.49;101597.34;5062631;28;45415;-80
2023/06/16 01:08:14;;;;;;;;;21.67;19.00;;;;;20.72;66.62;101603.69;5063960;28;45436;-80
2023/06/16 01:10:55;;;;;;;;;18.00;16.67;;;;;20.57;66.48;101586.06;5060148;28;45360;-80
2023/06/16 01:13:35;;;;;;;;;17.00;16.00;;;;;20.61;66.72;101598.31;5060656;28;45501;-80
2023/06/16 01:16:03;;;;;;;;;19.33;18.33;;;;;20.67;64.29;101603.22;5063202;28;45292;-80
2023/06/16 01:18:31;;;;;;;;;18.67;17.33;;;;;20.70;63.79;101598.47;5076370;28;45384;-80
2023/06/16 01:21:09;;;;;;;;;17.33;17.33;;;;;20.67;64.51;101592.47;5086004;27;45288;-80
2023/06/16 01:24:08;;;;;;;;;18.00;17.33;;;;;20.70;62.43;101605.66;5088991;27;45409;-80
2023/06/16 01:26:37;;;;;;;;;16.33;16.33;;;;;20.70;63.83;101595.78;5074148;27;45501;-80
2023/06/16 01:29:06;;;;;;;;;17.67;17.00;;;;;20.56;65.31;101568.22;5080501;27;45367;-80
2023/06/16 01:31:32;;;;;;;;;13.67;13.67;;;;;20.65;65.26;101594.38;5093305;27;45320;-80
2023/06/16 01:34:02;;;;;;;;;13.67;13.67;;;;;20.60;66.65;101583.16;5079844;27;45435;-80
2023/06/16 01:36:31;;;;;;;;;18.00;18.00;;;;;20.50;66.69;101583.00;5062182;28;45495;-81
2023/06/16 01:38:59;;;;;;;;;16.67;15.67;;;;;20.53;67.01;101581.91;5067467;28;45398;-80
2023/06/16 01:41:26;;;;;;;;;16.00;15.33;;;;;20.49;67.50;101586.66;5049381;27;46407;-80
2023/06/16 01:43:53;;;;;;;;;19.00;17.33;;;;;20.40;67.41;101581.97;5080336;28;45241;-81
2023/06/16 01:46:19;;;;;;;;;17.00;17.00;;;;;20.35;68.45;101594.91;5077772;27;45461;-80
2023/06/16 01:48:46;;;;;;;;;21.67;19.33;;;;;20.27;69.15;101586.56;5057559;27;45675;-80
2023/06/16 01:51:12;;;;;;;;;14.00;14.00;;;;;20.21;69.48;101581.63;5089052;27;45347;-80
2023/06/16 01:53:38;;;;;;;;;18.67;15.33;;;;;20.16;68.87;101590.00;5055026;28;45487;-80
2023/06/16 01:56:03;;;;;;;;;14.00;14.00;;;;;20.11;69.59;101594.88;5056383;27;46907;-80
2023/06/16 01:58:29;;;;;;;;;19.00;19.00;;;;;20.07;70.15;101597.91;5065262;28;45541;-80
2023/06/16 02:01:10;;;;;;;;;16.33;16.00;;;;;20.01;67.80;101598.34;5080446;27;45652;-80
2023/06/16 02:03:46;;;;;;;;;17.67;17.67;;;;;19.99;70.32;101598.44;5087422;27;45397;-80
2023/06/16 02:06:18;;;;;;;;;19.00;18.00;;;;;20.02;68.44;101598.25;5066503;28;45382;-80
2023/06/16 02:08:47;;;;;;;;;21.00;21.00;;;;;20.03;68.85;101599.94;5061475;28;45405;-80
2023/06/16 02:11:14;;;;;;;;;22.33;20.00;;;;;20.02;69.90;101603.63;5081421;27;45484;-79
2023/06/16 02:13:40;;;;;;;;;21.00;20.00;;;;;19.93;71.56;101584.63;5082256;27;45462;-80
2023/06/16 02:16:06;;;;;;;;;22.00;18.67;;;;;19.89;69.21;101588.53;5078070;27;45285;-80
2023/06/16 02:18:32;;;;;;;;;24.33;20.00;;;;;19.76;70.14;101569.78;5094473;27;45448;-80
2023/06/16 02:20:58;;;;;;;;;20.00;18.00;;;;;19.90;67.71;101596.44;5097005;27;46346;-80
2023/06/16 02:23:23;;;;;;;;;19.33;18.00;;;;;19.95;67.03;101604.19;5101824;27;45322;-80
2023/06/16 02:25:49;;;;;;;;;20.00;19.33;;;;;19.97;67.64;101605.78;5092893;27;45214;-80
2023/06/16 02:28:14;;;;;;;;;20.00;18.67;;;;;19.99;66.78;101611.88;5094304;27;45398;-80
2023/06/16 02:30:40;;;;;;;;;20.00;20.00;;;;;19.98;66.48;101603.94;5076660;27;45951;-80
2023/06/16 02:33:05;;;;;;;;;19.67;19.33;;;;;19.97;67.36;101605.78;5075443;27;45424;-81
2023/06/16 02:35:30;;;;;;;;;20.67;20.67;;;;;20.00;67.17;101602.00;5081285;27;45378;-81
2023/06/16 02:37:56;;;;;;;;;19.00;16.67;;;;;19.99;66.87;101605.69;5080791;28;45382;-81
2023/06/16 02:40:21;;;;;;;;;16.67;16.67;;;;;19.98;69.73;101599.44;5060739;28;47208;-80
2023/06/16 02:42:48;;;;;;;;;18.50;18.00;;;;;19.93;67.69;101592.69;5066181;28;45348;-81
2023/06/16 02:45:14;;;;;;;;;19.67;19.00;;;;;19.92;67.37;101593.66;5053943;28;45486;-81
2023/06/16 02:47:40;;;;;;;;;18.67;18.67;;;;;19.90;69.30;101587.53;5083048;27;45412;-80
2023/06/16 02:50:07;;;;;;;;;17.67;17.67;;;;;19.86;69.74;101586.06;5084358;27;46618;-80
2023/06/16 02:52:32;;;;;;;;;17.00;15.33;;;;;19.79;70.45;101576.75;5075726;28;45360;-81
2023/06/16 02:54:58;;;;;;;;;19.67;18.33;;;;;19.74;70.72;101585.13;5061669;27;45425;-80
2023/06/16 02:57:23;;;;;;;;;18.67;16.00;;;;;19.60;69.96;101572.69;5077556;27;45274;-81
2023/06/16 02:59:49;;;;;;;;;18.00;16.67;;;;;19.72;69.91;101592.44;5068418;28;47024;-80
2023/06/16 03:02:14;;;;;;;;;19.00;19.00;;;;;19.70;69.17;101597.91;5068425;28;45341;-80
2023/06/16 03:04:40;;;;;;;;;18.33;16.33;;;;;19.67;70.18;101592.75;5085777;27;45857;-80
2023/06/16 03:07:07;;;;;;;;;21.67;18.33;;;;;19.55;68.84;101579.38;5065142;28;45554;-81
2023/06/16 03:09:32;;;;;;;;;16.33;15.00;;;;;19.66;69.77;101593.75;5086096;27;47895;-80
2023/06/16 03:11:58;;;;;;;;;18.33;18.33;;;;;19.58;69.87;101587.22;5073510;27;45387;-80
2023/06/16 03:14:23;;;;;;;;;19.67;18.67;;;;;19.47;69.66;101565.69;5098220;27;44710;-80
2023/06/16 03:16:49;;;;;;;;;17.00;17.00;;;;;19.59;68.15;101599.66;5089498;27;45478;-80
2023/06/16 03:19:20;;;;;;;;;16.67;15.33;;;;;19.57;71.57;101593.53;5089354;27;45379;-80
2023/06/16 03:21:48;;;;;;;;;16.67;16.00;;;;;19.52;71.38;101587.66;5071901;27;45347;-81
2023/06/16 03:24:16;;;;;;;;;21.33;18.33;;;;;19.52;69.77;101598.38;5091547;27;45393;-80
2023/06/16 03:26:43;;;;;;;;;16.67;16.67;;;;;19.45;71.88;101594.44;5084691;27;45478;-80
2023/06/16 03:29:09;;;;;;;;;21.00;17.00;;;;;19.47;73.69;101608.59;5080446;28;45336;-80
2023/06/16 03:31:34;;;;;;;;;15.67;15.67;;;;;19.44;70.87;101604.28;5061375;27;45304;-80
2023/06/16 03:34:03;;;;;;;;;16.33;16.00;;;;;19.38;71.46;101598.47;5089144;27;45475;-80
2023/06/16 03:36:28;;;;;;;;;20.00;20.00;;;;;19.28;70.27;101587.53;5093900;27;45379;-80
2023/06/16 03:38:54;;;;;;;;;19.33;19.33;;;;;19.26;70.28;101586.81;5068924;27;45912;-81
2023/06/16 03:41:20;;;;;;;;;19.00;18.33;;;;;19.39;71.26;101605.56;5077023;27;45365;-81
2023/06/16 03:43:45;;;;;;;;;16.67;15.67;;;;;19.27;70.71;101593.03;5088982;27;45328;-81
2023/06/16 03:46:10;;;;;;;;;16.67;15.67;;;;;19.34;70.95;101605.03;5084856;27;45291;-80
2023/06/16 03:48:36;;;;;;;;;15.00;14.67;;;;;19.31;72.59;101614.16;5072993;27;45333;-80
2023/06/16 03:51:01;;;;;;;;;23.33;18.00;;;;;19.27;72.07;101602.78;5082001;27;45350;-80
2023/06/16 03:53:28;;;;;;;;;16.00;15.67;;;;;19.19;75.22;101596.25;5102952;27;45673;-80
2023/06/16 03:55:53;;;;;;;;;16.33;15.67;;;;;19.13;75.36;101602.91;5099739;27;45194;-80
2023/06/16 03:58:20;;;;;;;;;16.67;15.67;;;;;19.19;74.75;101615.88;5085367;27;45546;-80
2023/06/16 04:00:45;;;;;;;;;14.67;14.67;;;;;19.07;73.56;101589.06;5090110;27;45921;-80
2023/06/16 04:03:11;;;;;;;;;18.00;15.67;;;;;19.09;73.62;101600.53;5062913;28;45285;-80
2023/06/16 04:05:37;;;;;;;;;19.33;18.33;;;;;19.13;71.95;101612.78;5087505;27;45352;-80
2023/06/16 04:08:03;;;;;;;;;16.00;15.00;;;;;19.10;73.26;101605.81;5072990;28;45365;-80
2023/06/16 04:10:28;;;;;;;;;17.00;16.67;;;;;19.13;74.02;101616.31;5055465;27;45390;-80
2023/06/16 04:12:54;;;;;;;;;14.33;14.33;;;;;19.11;72.88;101606.63;5084215;27;45340;-81
2023/06/16 04:15:19;;;;;;;;;14.00;14.00;;;;;19.13;71.92;101616.31;5082326;27;45385;-80
2023/06/16 04:17:45;;;;;;;;;15.33;13.67;;;;;19.14;71.07;101618.00;5087632;27;45395;-80
2023/06/16 04:20:12;;;;;;;;;18.33;16.33;;;;;19.15;73.31;101624.22;5070422;27;45325;-80
2023/06/16 04:22:38;;;;;;;;;20.67;18.67;;;;;19.10;71.37;101610.31;5081268;27;45320;-80
2023/06/16 04:25:04;;;;;;;;;19.67;15.00;;;;;19.15;72.09;101621.56;5059777;28;45476;-81
2023/06/16 04:27:31;;;;;;;;;17.00;15.33;;;;;19.15;72.37;101627.78;5093188;27;46020;-80
2023/06/16 04:29:57;;;;;;;;;16.33;16.33;;;;;19.15;73.07;101619.72;5091197;27;45316;-81
2023/06/16 04:32:22;;;;;;;;;16.67;16.67;;;;;19.17;72.73;101627.69;5077868;28;45438;-81
2023/06/16 04:34:49;;;;;;;;;17.67;15.67;;;;;19.17;73.18;101628.53;5092722;27;45532;-80
2023/06/16 04:37:15;;;;;;;;;21.67;20.33;;;;;19.19;74.06;101628.44;5058841;27;46717;-81
2023/06/16 04:39:40;;;;;;;;;20.33;17.33;;;;;19.15;74.66;101618.88;5099721;27;45393;-81
2023/06/16 04:42:08;;;;;;;;;17.67;17.67;;;;;19.15;75.09;101622.41;5092041;27;45389;-80
2023/06/16 04:44:34;;;;;;;;;14.67;13.33;;;;;19.22;75.37;101622.84;5066928;28;45318;-81
2023/06/16 04:47:00;;;;;;;;;17.67;17.33;;;;;19.23;72.91;101627.25;5065020;28;47914;-80
2023/06/16 04:49:25;;;;;;;;;20.33;16.67;;;;;19.25;72.39;101633.34;5088402;28;45307;-81
2023/06/16 04:51:50;;;;;;;;;17.33;17.00;;;;;19.25;72.56;101620.81;5084995;28;46512;-80
2023/06/16 04:54:18;;;;;;;;;16.67;15.67;;;;;19.33;75.33;101631.00;5073433;28;45798;-81
2023/06/16 04:56:43;;;;;;;;;18.00;18.00;;;;;19.36;72.96;101620.06;5085196;27;46114;-80
2023/06/16 04:59:09;;;;;;;;;20.67;17.67;;;;;19.32;74.77;101609.66;5091296;27;45325;-80
2023/06/16 05:01:34;;;;;;;;;22.67;20.33;;;;;19.43;72.67;101617.84;5095274;27;45301;-80
2023/06/16 05:04:01;;;;;;;;;21.00;19.67;;;;;19.37;71.99;101600.28;5065000;27;45603;-81
2023/06/16 05:06:26;;;;;;;;;17.67;17.67;;;;;19.57;71.35;101621.22;5078897;27;45381;-81
2023/06/16 05:08:53;;;;;;;;;20.67;19.67;;;;;19.56;72.50;101618.66;5077822;27;45313;-80
2023/06/16 05:11:19;;;;;;;;;18.67;18.67;;;;;19.69;73.03;101624.88;5067002;28;45381;-80
2023/06/16 05:13:45;;;;;;;;;21.00;20.00;;;;;19.70;69.66;101611.31;5074086;27;45446;-80
2023/06/16 05:16:11;;;;;;;;;19.67;19.00;;;;;19.80;70.12;101622.25;5092589;27;45304;-80
2023/06/16 05:18:36;;;;;;;;;21.67;17.67;;;;;19.81;73.52;101613.25;5067317;28;45597;-81
2023/06/16 05:21:01;;;;;;;;;18.67;17.33;;;;;19.84;72.22;101604.97;5091623;27;45761;-80
2023/06/16 05:23:27;;;;;;;;;18.00;17.33;;;;;19.96;73.78;101612.09;5073080;27;45365;-80
2023/06/16 05:25:52;;;;;;;;;22.33;20.33;;;;;20.03;76.46;101618.75;5094060;27;45371;-80
2023/06/16 05:28:18;;;;;;;;;18.67;18.67;;;;;20.09;73.76;101615.59;5076834;27;45498;-80
2023/06/16 05:30:43;;;;;;;;;23.67;21.00;;;;;20.09;75.64;101612.91;5066563;27;45460;-80
2023/06/16 05:33:08;;;;;;;;;22.00;20.00;;;;;20.19;76.42;101607.72;5074771;27;45439;-80
2023/06/16 05:35:34;;;;;;;;;22.33;20.33;;;;;20.27;70.27;101619.66;5065074;28;47846;-80
2023/06/16 05:37:59;;;;;;;;;19.75;19.00;;;;;20.27;71.87;101600.00;5091146;27;45400;-80
2023/06/16 05:40:24;;;;;;;;;20.67;20.67;;;;;20.37;71.44;101602.84;5071840;27;45476;-80
2023/06/16 05:42:50;;;;;;;;;23.33;21.33;;;;;20.41;71.38;101604.34;5070929;27;45431;-80
2023/06/16 05:45:15;;;;;;;;;19.00;19.00;;;;;20.51;70.16;101614.28;5093507;27;45376;-81
2023/06/16 05:47:40;;;;;;;;;20.67;20.00;;;;;20.69;72.34;101623.63;5063967;28;45802;-81
2023/06/16 05:50:06;;;;;;;;;21.67;20.33;;;;;20.79;68.77;101610.31;5081606;28;45345;-81
2023/06/16 05:52:31;;;;;;;;;26.00;22.00;;;;;20.88;69.93;101609.59;5088801;27;45367;-79
2023/06/16 05:54:57;;;;;;;;;23.33;21.33;;;;;20.93;69.50;101607.44;5073043;27;45397;-80
2023/06/16 05:57:24;;;;;;;;;21.00;21.00;;;;;20.97;66.93;101598.16;5062278;27;45542;-80
2023/06/16 05:59:49;;;;;;;;;23.33;21.00;;;;;21.10;69.75;101601.63;5075282;27;45283;-80
2023/06/16 06:02:15;;;;;;;;;21.33;21.33;;;;;21.23;69.80;101604.22;5073385;27;45541;-80
2023/06/16 06:04:41;;;;;;;;;20.00;19.67;;;;;21.34;68.13;101616.78;5081870;27;45796;-80
2023/06/16 06:07:06;;;;;;;;;18.33;16.33;;;;;21.40;68.20;101611.78;5078249;28;45491;-80
2023/06/16 06:09:32;;;;;;;;;18.67;17.33;;;;;21.48;66.52;101606.66;5071044;28;45394;-79
2023/06/16 06:11:57;;;;;;;;;17.67;17.67;;;;;21.62;69.72;101619.03;5079600;27;45403;-80
2023/06/16 06:14:22;;;;;;;;;24.00;21.50;;;;;21.69;65.77;101620.25;5072050;27;46324;-80
2023/06/16 06:16:49;;;;;;;;;24.00;22.33;;;;;21.80;62.09;101621.06;5089555;27;45398;-80
2023/06/16 06:19:14;;;;;;;;;28.67;20.33;;;;;21.90;63.89;101613.13;5055566;27;45361;-80
2023/06/16 06:21:40;;;;;;;;;27.67;24.00;;;;;21.99;62.78;101625.84;5078578;27;45514;-80
2023/06/16 06:24:06;;;;;;;;;24.67;22.00;;;;;22.07;62.25;101609.06;5067301;27;45396;-80
2023/06/16 06:26:32;;;;;;;;;21.00;19.67;;;;;22.21;61.55;101619.56;5071335;27;45271;-80
2023/06/16 06:28:58;;;;;;;;;24.33;21.33;;;;;22.34;64.06;101628.34;5067415;28;45543;-84
2023/06/16 06:31:23;;;;;;;;;31.67;25.67;;;;;22.41;62.55;101623.28;5050802;28;45351;-80
2023/06/16 06:33:48;;;;;;;;;23.67;23.33;;;;;22.50;62.43;101628.78;5091527;27;46018;-82
2023/06/16 06:36:28;;;;;;;;;22.00;19.00;;;;;22.60;62.61;101627.00;5081152;27;53154;-83
2023/06/16 06:38:54;;;;;;;;;22.33;21.00;;;;;22.66;58.44;101607.63;5076426;28;45559;-83
2023/06/16 06:41:24;;;;;;;;;27.33;24.00;;;;;22.96;59.15;101641.94;5079512;27;45432;-83
2023/06/16 06:43:50;;;;;;;;;22.33;21.00;;;;;23.00;58.02;101629.91;5087782;27;45514;-83
2023/06/16 06:46:17;;;;;;;;;25.33;20.00;;;;;23.23;59.63;101636.84;5059417;28;45325;-83
2023/06/16 06:52:19;;;;;;;;;24.33;22.33;;;;;23.31;57.10;101634.34;5047401;28;45328;-79
2023/06/16 06:55:17;;;;;;;;;27.67;23.33;;;;;23.16;56.44;101584.41;5072771;27;45493;-80
2023/06/16 06:57:55;;;;;;;;;;;;;;;;;;;;;
2023/06/16 07:00:27;;;;;;;;;15.33;15.33;;;;;23.44;52.71;101607.13;5083315;27;68416;-80
2023/06/16 07:03:18;;;;;;;;;18.67;15.33;;;;;23.48;53.39;101588.81;5057326;28;45621;-82
2023/06/16 07:05:48;;;;;;;;;19.33;15.67;;;;;23.75;51.95;101616.09;5071635;27;46088;-81
2023/06/16 07:09:06;;;;;;;;;15.67;15.00;;;;;23.67;53.04;101594.28;5072169;28;45923;-81
2023/06/16 07:11:33;;;;;;;;;13.33;12.00;;;;;24.10;51.06;101629.97;5052367;28;45458;-81
2023/06/16 07:14:01;;;;;;;;;16.33;16.33;;;;;24.20;50.16;101638.97;5057154;28;45539;-80
2023/06/16 07:16:27;;;;;;;;;14.33;14.33;;;;;24.09;50.53;101606.63;5077563;28;46091;-80
2023/06/16 07:19:51;;;;;;;;;21.00;17.00;;;;;24.64;49.60;101672.75;5070268;27;45449;-80
2023/06/16 07:22:19;;;;;;;;;17.00;15.67;;;;;24.78;48.24;101668.75;5063984;27;45573;-80
2023/06/16 07:25:19;;;;;;;;;21.00;18.00;;;;;24.36;47.47;101603.28;5055843;28;45505;-80
2023/06/16 07:27:48;;;;;;;;;15.33;15.33;;;;;24.51;47.52;101601.00;5067979;28;45487;-80
2023/06/16 07:30:55;;;;;;;;;18.33;16.67;;;;;24.97;47.52;101649.00;5058577;28;45396;-79
2023/06/16 07:34:22;;;;;;;;;18.67;17.33;;;;;24.68;46.95;101587.59;5062931;27;45427;-79
2023/06/16 07:36:53;;;;;;;;;20.00;13.67;;;;;24.74;47.35;101572.63;4985612;28;45570;-82
2023/06/16 07:40:06;;;;;;;;;23.33;18.67;;;;;24.86;48.99;101575.09;5082201;27;45418;-82
2023/06/16 07:42:28;;;;;;;;;20.00;16.67;;;;;25.31;47.38;101631.25;5064914;28;45411;-80
2023/06/16 07:44:54;;;;;;;;;15.00;13.33;;;;;25.27;48.73;101605.44;5079174;27;45488;-81
2023/06/16 07:50:28;;;;;;;;;16.67;16.67;;;;;25.50;47.75;101603.25;5051569;27;45607;-80
2023/06/16 07:52:53;;;;;;;;;17.33;16.67;;;;;25.47;46.54;101571.00;5089915;27;45669;-80
2023/06/16 07:56:24;;;;;;;;;19.33;17.00;;;;;25.76;47.74;101610.53;5075341;27;45344;-79
2023/06/16 07:58:46;;;;;;;;;;;;;;;;;;;;;
2023/06/16 08:01:12;;;;;;;;;20.67;18.33;;;;;26.07;44.73;101638.19;5063028;28;75892;-79
2023/06/16 08:03:37;;;;;;;;;22.00;16.00;;;;;25.99;44.86;101613.69;5078727;28;45354;-80
2023/06/16 08:06:20;;;;;;;;;23.67;17.00;;;;;26.14;45.40;101605.91;5080848;27;45955;-78
2023/06/16 08:08:59;;;;;;;;;14.67;13.33;;;;;26.16;45.58;101574.06;5061658;28;45487;-79
2023/06/16 08:11:27;;;;;;;;;15.00;13.00;;;;;26.44;46.11;101604.72;5083364;27;45918;-78
2023/06/16 08:13:53;;;;;;;;;17.00;14.33;;;;;26.79;42.81;101648.97;5078415;27;45329;-79
2023/06/16 08:16:39;;;;;;;;;20.33;15.00;;;;;26.55;44.88;101596.31;5062271;28;45395;-79
2023/06/16 08:19:06;;;;;;;;;20.33;17.00;;;;;26.82;43.47;101607.97;5073374;27;45856;-78
2023/06/16 08:21:32;;;;;;;;;17.67;13.67;;;;;27.25;44.67;101657.84;5076370;28;45622;-78
2023/06/16 08:23:57;;;;;;;;;12.00;10.33;;;;;27.24;44.28;101646.09;5091155;27;45430;-78
2023/06/16 08:27:12;;;;;;;;;21.33;17.33;;;;;27.36;42.16;101650.25;5057267;28;45446;-80
2023/06/16 08:30:10;;;;;;;;;18.33;14.33;;;;;27.53;42.59;101653.09;5053854;27;45516;-80
2023/06/16 08:32:48;;;;;;;;;12.67;12.67;;;;;27.62;42.75;101660.28;5038962;28;46268;-79
2023/06/16 08:35:35;;;;;;;;;13.67;13.67;;;;;27.73;42.41;101651.84;5078957;27;45358;-79
2023/06/16 08:38:38;;;;;;;;;18.33;15.00;;;;;27.44;39.70;101584.28;5062462;28;45381;-79
2023/06/16 08:41:21;;;;;;;;;14.67;14.67;;;;;27.39;40.16;101556.69;5074875;28;45801;-80
2023/06/16 08:43:50;;;;;;;;;15.33;13.00;;;;;27.54;40.19;101562.41;5075724;27;47217;-80
2023/06/16 08:47:17;;;;;;;;;12.67;12.33;;;;;27.65;38.08;101579.25;5079896;28;45484;-79
2023/06/16 08:50:00;;;;;;;;;15.33;13.33;;;;;27.77;38.02;101574.38;5083168;27;45435;-81
2023/06/16 08:53:08;;;;;;;;;;;;;;;;;;;;;
2023/06/16 08:56:03;;;;;;;;;14.33;13.67;;;;;27.84;39.41;101543.66;5061055;27;73399;-82
2023/06/16 08:58:54;;;;;;;;;14.00;13.67;;;;;28.46;37.08;101623.03;5049888;28;45586;-79
2023/06/16 09:01:33;;;;;;;;;12.67;12.67;;;;;28.47;38.58;101592.06;5064586;28;45376;-80
2023/06/16 09:04:08;;;;;;;;;14.33;12.00;;;;;28.50;38.74;101569.09;5055319;28;45460;-79
2023/06/16 09:06:43;;;;;;;;;13.00;12.67;;;;;28.79;37.42;101592.09;5066125;28;45885;-80
2023/06/16 09:09:49;;;;;;;;;13.67;9.67;;;;;29.17;35.27;101638.69;5065656;27;45507;-80
2023/06/16 09:16:19;;;;;;;;;14.00;11.67;;;;;29.24;35.61;101596.97;5019074;28;45984;-81
2023/06/16 09:19:23;;;;;;;;;12.00;11.00;;;;;29.44;35.50;101609.22;5046642;27;45528;-81
2023/06/16 09:22:09;;;;;;;;;;;;;;;;;;;;;
2023/06/16 09:25:12;;;;;;;;;10.00;10.00;;;;;29.34;33.00;101551.31;5076798;27;67493;-79
2023/06/16 09:28:04;;;;;;;;;;;;;;;;;;;;;
2023/06/16 09:31:12;;;;;;;;;;;;;;;;;;;;;
2023/06/16 09:34:18;;;;;;;;;;;;;;;;;;;;;
2023/06/16 09:37:04;;;;;;;;;8.67;8.33;;;;;30.26;32.27;101632.38;5070211;27;69281;-81
2023/06/16 09:39:34;;;;;;;;;11.33;10.00;;;;;30.24;30.08;101612.56;5050753;28;45539;-80
2023/06/16 09:42:22;;;;;;;;;17.67;17.67;;;;;30.20;36.11;101589.41;5058442;28;47331;-80
2023/06/16 09:45:04;;;;;;;;;13.33;8.33;;;;;29.90;31.56;101516.63;5068418;27;45822;-80
2023/06/16 09:48:21;;;;;;;;;;;;;;;;;;;;;
2023/06/16 09:51:07;;;;;;;;;;;;;;;;;;;;;
2023/06/16 09:53:36;;;;;;;;;11.33;8.00;;;;;30.18;30.69;101522.38;5087324;27;76223;-80
2023/06/16 09:56:36;;;;;;;;;;;;;;;;;;;;;
2023/06/16 09:59:11;;;;;;;;;12.33;9.00;;;;;30.50;32.75;101546.72;5077710;27;67704;-84
2023/06/16 10:01:40;;;;;;;;;9.33;9.33;;;;;30.72;29.33;101588.72;5061290;28;45583;-80
2023/06/16 10:04:22;;;;;;;;;9.00;9.00;;;;;30.60;30.18;101563.69;5087243;27;46371;-85
2023/06/16 10:07:00;;;;;;;;;11.33;9.33;;;;;30.79;31.92;101586.94;5062713;28;45395;-79
2023/06/16 10:09:42;;;;;;;;;9.00;8.00;;;;;31.06;31.77;101624.59;5058923;28;45413;-81
2023/06/16 10:12:33;;;;;;;;;;;;;;;;;;;;;
2023/06/16 10:15:24;;;;;;;;;9.67;9.00;;;;;30.81;33.28;101563.00;5084563;27;75314;-79
2023/06/16 10:18:10;;;;;;;;;8.67;8.67;;;;;31.16;30.29;101597.84;5069452;27;45430;-78
2023/06/16 10:24:02;;;;;;;;;12.33;10.67;;;;;31.29;29.09;101616.34;5077748;27;45572;-79
2023/06/16 10:26:42;;;;;;;;;11.00;11.00;;;;;30.75;28.00;101526.38;5071097;27;45399;-78
2023/06/16 10:29:12;;;;;;;;;9.00;8.00;;;;;31.42;30.63;101608.31;5070430;28;45529;-76
2023/06/16 10:32:13;;;;;;;;;10.00;10.00;;;;;31.28;31.21;101551.78;5060688;27;45382;-79
2023/06/16 10:35:07;;;;;;;;;10.33;10.33;;;;;31.71;28.75;101602.03;5054276;28;45492;-83
2023/06/16 10:37:42;;;;;;;;;;;;;;;;;;;;;
2023/06/16 10:40:17;;;;;;;;;10.00;10.00;;;;;31.48;28.33;101531.00;5079763;27;71967;-81
2023/06/16 10:43:50;;;;;;;;;8.33;8.33;;;;;31.60;30.16;101553.28;5061595;28;45455;-82
2023/06/16 10:46:27;;;;;;;;;11.67;11.67;;;;;31.87;31.03;101582.69;5062728;28;45497;-82
2023/06/16 10:49:20;;;;;;;;;9.00;9.00;;;;;31.90;30.83;101580.38;5062277;28;46784;-82
2023/06/16 10:52:09;;;;;;;;;12.00;9.00;;;;;31.62;29.28;101518.38;5063207;28;45343;-81
2023/06/16 10:54:56;;;;;;;;;10.00;9.67;;;;;31.79;29.97;101506.16;5060162;28;45546;-82
2023/06/16 10:57:25;;;;;;;;;8.67;8.67;;;;;32.07;28.78;101553.66;5059471;28;45590;-79
2023/06/16 11:00:10;;;;;;;;;;;;;;;;;;;;;
2023/06/16 11:02:38;;;;;;;;;10.33;10.33;;;;;32.03;28.84;101532.31;5076541;28;71674;-80
2023/06/16 11:05:12;;;;;;;;;9.67;9.67;;;;;32.48;29.51;101584.84;5078418;28;45517;-80
2023/06/16 11:08:08;;;;;;;;;10.67;10.67;;;;;32.53;28.35;101582.34;5058031;28;45449;-79
2023/06/16 11:11:00;;;;;;;;;12.67;12.67;;;;;32.47;27.50;101561.22;5055485;28;45847;-80
2023/06/16 11:13:33;;;;;;;;;11.67;9.00;;;;;32.07;27.90;101501.63;5059406;28;45471;-79
2023/06/16 11:16:15;;;;;;;;;11.33;11.00;;;;;32.22;28.82;101523.50;5055992;28;45286;-79
2023/06/16 11:18:40;;;;;;;;;9.00;9.00;;;;;32.22;29.51;101521.59;5058593;28;45426;-78
2023/06/16 11:21:10;;;;;;;;;11.00;11.00;;;;;32.24;28.43;101543.28;5077484;28;45755;-78
2023/06/16 11:23:39;;;;;;;;;12.00;12.00;;;;;31.84;29.44;101514.66;5075972;28;45624;-78
2023/06/16 11:26:44;;;;;;;;;13.00;13.00;;;;;32.08;29.99;101574.50;5077635;28;45463;-78
2023/06/16 11:29:36;;;;;;;;;12.00;10.33;;;;;32.27;31.33;101583.97;5070462;28;45568;-79
2023/06/16 11:32:32;;;;;;;;;11.00;9.00;;;;;32.08;28.53;101533.47;5039034;28;45494;-81
2023/06/16 11:35:37;;;;;;;;;13.33;12.00;;;;;31.85;27.43;101488.97;5058324;28;45486;-81
2023/06/16 11:38:27;;;;;;;;;12.67;11.33;;;;;32.16;27.58;101519.66;5079373;28;45452;-80
2023/06/16 11:41:37;;;;;;;;;;;;;;;;;;;;;
2023/06/16 11:44:37;;;;;;;;;12.00;12.00;;;;;32.48;28.54;101483.50;5071414;28;77036;-81
2023/06/16 11:47:52;;;;;;;;;;;;;;;;;;;;;
2023/06/16 11:54:07;;;;;;;;;;;;;;;;;;;;;
2023/06/16 11:56:33;;;;;;;;;;;;;;;;;;;;;
2023/06/16 11:59:33;;;;;;;;;10.33;9.00;;;;;33.28;27.97;101506.84;5078627;27;72393;-79
2023/06/16 12:02:31;;;;;;;;;13.00;12.00;;;;;33.66;27.47;101540.16;5061581;28;45479;-81
2023/06/16 12:05:05;;;;;;;;;11.67;10.00;;;;;33.40;26.38;101508.78;5062010;28;45618;-85
2023/06/16 12:07:53;;;;;;;;;13.00;12.33;;;;;33.63;28.95;101554.28;5080476;28;46702;-84
2023/06/16 12:10:57;;;;;;;;;12.00;11.00;;;;;33.64;27.84;101547.75;5059178;28;45442;-81
2023/06/16 12:13:43;;;;;;;;;12.00;10.00;;;;;33.67;28.95;101553.66;5062413;28;45520;-81
2023/06/16 12:17:04;;;;;;;;;;;;;;;;;;;;;
2023/06/16 12:20:14;;;;;;;;;13.33;11.33;;;;;33.47;27.56;101468.53;5068258;27;46014;-84
2023/06/16 12:29:44;;;;;;;;;9.00;9.00;;;;;34.26;27.90;101463.22;4990809;28;45725;-81
2023/06/16 12:32:11;;;;;;;;;10.67;10.67;;;;;34.43;26.36;101478.22;4978523;28;47154;-82
2023/06/16 12:38:53;;;;;;;;;13.00;12.00;;;;;34.68;27.46;101469.34;4944383;28;45604;-80